OL01 weather

Hissom Memorial Center Heliport
Sand Springs, Oklahoma, United States

Public forecast

Using degrees Fahrenheit for public forecast. Weather courtesy of forecast.io.

METAR (pilot weather report)

Closest report is William R. Pogue Municipal Airport, 2.8 nm (5.2 km) N. Retrieved 2019/04/26 09:35 UTC (0 seconds ago):

KOWP 260935Z AUTO 00000KT 10SM CLR 11/08 A3012 RMK AO2 T01080083 PWINO

TAF (pilot weather forecast)

Closest forecast is Richard Lloyd Jones Jr Airport, 9.4 nm (17.5 km) SE. Retrieved 2019/04/26 06:22 UTC (3 hours ago):

TAF KRVS 260520Z 2606/2706 35007KT P6SM SKC FM262000 17006KT P6SM FEW250